createdAt,value
2023-01-29T00:02:19.713Z,95694.06
2023-01-29T00:04:48.735Z,95701.09
2023-01-29T00:07:16.556Z,95696.59
2023-01-29T00:09:44.238Z,95692.59
2023-01-29T00:12:11.992Z,95692.13
2023-01-29T00:14:39.673Z,95696.28
2023-01-29T00:17:07.336Z,95691.81
2023-01-29T00:19:35.043Z,95695.47
2023-01-29T00:22:04.169Z,95697.00
2023-01-29T00:24:31.866Z,95695.16
2023-01-29T00:26:59.552Z,95706.28
2023-01-29T00:29:27.270Z,95709.78
2023-01-29T00:31:55.043Z,95710.19
2023-01-29T00:34:23.451Z,95712.19
2023-01-29T00:36:51.065Z,95707.50
2023-01-29T00:39:31.444Z,95712.97
2023-01-29T00:42:21.630Z,95717.63
2023-01-29T00:44:58.384Z,95708.59
2023-01-29T00:47:33.364Z,95704.13
2023-01-29T00:50:01.728Z,95714.28
2023-01-29T00:52:29.502Z,95704.75
2023-01-29T00:55:00.241Z,95705.56
2023-01-29T00:57:29.739Z,95703.97
2023-01-29T00:59:57.452Z,95698.13
2023-01-29T01:02:42.916Z,95704.13
2023-01-29T01:05:14.095Z,95719.28
2023-01-29T01:07:42.137Z,95708.88
2023-01-29T01:10:22.447Z,95711.03
2023-01-29T01:12:52.323Z,95707.97
2023-01-29T01:15:20.746Z,95708.31
2023-01-29T01:17:49.610Z,95711.97
2023-01-29T01:20:17.786Z,95718.28
2023-01-29T01:22:45.677Z,95702.63
2023-01-29T01:25:14.649Z,95705.69
2023-01-29T01:27:42.380Z,95712.50
2023-01-29T01:30:12.316Z,95715.84
2023-01-29T01:32:40.151Z,95720.03
2023-01-29T01:35:09.215Z,95721.09
2023-01-29T01:37:38.741Z,95722.31
2023-01-29T01:40:12.660Z,95715.66
2023-01-29T01:42:42.670Z,95724.19
2023-01-29T01:45:19.913Z,95724.84
2023-01-29T01:47:49.596Z,95734.25
2023-01-29T01:50:20.133Z,95726.75
2023-01-29T01:52:50.844Z,95729.44
2023-01-29T01:55:21.106Z,95723.78
2023-01-29T01:57:54.108Z,95714.88
2023-01-29T02:00:23.357Z,95711.13
2023-01-29T02:03:08.355Z,95720.69
2023-01-29T02:05:54.030Z,95722.38
2023-01-29T02:08:47.539Z,95730.19
2023-01-29T02:11:15.225Z,95719.34
2023-01-29T02:13:44.406Z,95718.22
2023-01-29T02:16:11.997Z,95724.38
2023-01-29T02:18:39.703Z,95716.38
2023-01-29T02:21:25.296Z,95715.91
2023-01-29T02:24:17.212Z,95727.94
2023-01-29T02:26:51.975Z,95734.63
2023-01-29T02:29:25.285Z,95727.13
2023-01-29T02:31:59.738Z,95734.81
2023-01-29T02:34:55.887Z,95723.44
2023-01-29T02:37:27.342Z,95719.09
2023-01-29T02:40:04.051Z,95706.19
2023-01-29T02:42:36.756Z,95708.88
2023-01-29T02:45:11.105Z,95707.56
2023-01-29T02:47:43.675Z,95710.41
2023-01-29T02:50:16.168Z,95713.53
2023-01-29T02:52:54.193Z,95711.53
2023-01-29T02:55:26.002Z,95701.53
2023-01-29T02:57:57.633Z,95693.84
2023-01-29T03:00:29.717Z,95699.03
2023-01-29T03:02:58.483Z,95691.38
2023-01-29T03:05:30.181Z,95686.16
2023-01-29T03:08:00.246Z,95696.72
2023-01-29T03:10:36.688Z,95697.38
2023-01-29T03:13:07.824Z,95699.38
2023-01-29T03:15:42.479Z,95703.19
2023-01-29T03:18:12.589Z,95700.16
2023-01-29T03:20:48.050Z,95700.00
2023-01-29T03:23:18.395Z,95707.06
2023-01-29T03:26:03.745Z,95699.03
2023-01-29T03:28:49.500Z,95703.00
2023-01-29T03:31:37.217Z,95703.16
2023-01-29T03:34:10.179Z,95708.03
2023-01-29T03:36:45.585Z,95709.56
2023-01-29T03:39:14.829Z,95709.03
2023-01-29T03:41:47.657Z,95716.88
2023-01-29T03:44:17.346Z,95711.22
2023-01-29T03:46:50.203Z,95710.25
2023-01-29T03:49:22.462Z,95712.91
2023-01-29T03:51:54.961Z,95706.72
2023-01-29T03:54:27.300Z,95700.88
2023-01-29T03:57:00.407Z,95694.56
2023-01-29T03:59:36.640Z,95693.88
2023-01-29T04:02:07.544Z,95685.97
2023-01-29T04:04:36.878Z,95679.44
2023-01-29T04:07:09.663Z,95675.44
2023-01-29T04:09:40.361Z,95669.09
2023-01-29T04:12:10.354Z,95658.41
2023-01-29T04:14:38.832Z,95656.41
2023-01-29T04:17:11.315Z,95661.44
2023-01-29T04:19:39.669Z,95665.09
2023-01-29T04:22:12.971Z,95654.38
2023-01-29T04:24:41.200Z,95661.44
2023-01-29T04:27:21.675Z,95673.94
2023-01-29T04:29:59.439Z,95665.56
2023-01-29T04:32:33.764Z,95669.56
2023-01-29T04:35:04.116Z,95669.41
2023-01-29T04:37:38.512Z,95669.91
2023-01-29T04:40:16.482Z,95652.69
2023-01-29T04:42:50.514Z,95665.59
2023-01-29T04:45:22.851Z,95670.63
2023-01-29T04:47:59.428Z,95672.31
2023-01-29T04:50:30.361Z,95673.47
2023-01-29T04:53:03.239Z,95682.13
2023-01-29T04:55:36.025Z,95677.91
2023-01-29T04:58:06.645Z,95677.28
2023-01-29T05:00:36.593Z,95667.75
2023-01-29T05:03:08.219Z,95680.00
2023-01-29T05:05:35.847Z,95671.09
2023-01-29T05:08:04.474Z,95667.59
2023-01-29T05:10:32.197Z,95672.44
2023-01-29T05:13:02.193Z,95675.38
2023-01-29T05:15:34.851Z,95682.38
2023-01-29T05:18:03.149Z,95684.38
2023-01-29T05:20:34.490Z,95687.22
2023-01-29T05:23:02.120Z,95689.41
2023-01-29T05:25:31.580Z,95682.78
2023-01-29T05:28:07.312Z,95692.47
2023-01-29T05:30:37.751Z,95703.16
2023-01-29T05:33:06.512Z,95709.38
2023-01-29T05:35:35.513Z,95724.84
2023-01-29T05:38:03.113Z,95717.34
2023-01-29T05:40:31.083Z,95724.34
2023-01-29T05:42:58.697Z,95725.72
2023-01-29T05:45:26.355Z,95732.56
2023-01-29T05:47:56.853Z,95730.41
2023-01-29T05:50:25.399Z,95725.78
2023-01-29T05:52:58.780Z,95721.41
2023-01-29T05:55:26.411Z,95718.88
2023-01-29T05:57:54.039Z,95723.72
2023-01-29T06:00:22.227Z,95730.19
2023-01-29T06:02:50.546Z,95724.84
2023-01-29T06:05:18.249Z,95724.69
2023-01-29T06:07:46.943Z,95731.38
2023-01-29T06:10:17.956Z,95730.69
2023-01-29T06:12:45.820Z,95733.22
2023-01-29T06:15:15.360Z,95730.19
2023-01-29T06:17:43.180Z,95721.81
2023-01-29T06:20:11.865Z,95733.38
2023-01-29T06:22:39.483Z,95722.84
2023-01-29T06:25:08.443Z,95727.16
2023-01-29T06:27:37.470Z,95732.50
2023-01-29T06:30:05.880Z,95726.13
2023-01-29T06:32:33.797Z,95722.94
2023-01-29T06:35:01.444Z,95725.59
2023-01-29T06:37:29.087Z,95721.72
2023-01-29T06:39:56.671Z,95734.09
2023-01-29T06:42:27.917Z,95728.13
2023-01-29T06:44:57.490Z,95732.47
2023-01-29T06:47:25.834Z,95731.47
2023-01-29T06:49:53.513Z,95733.69
2023-01-29T06:52:32.241Z,95726.50
2023-01-29T06:54:59.933Z,95739.84
2023-01-29T06:57:32.757Z,95734.50
2023-01-29T07:00:01.882Z,95727.16
2023-01-29T07:02:29.943Z,95735.91
2023-01-29T07:04:57.687Z,95738.41
2023-01-29T07:07:25.357Z,95730.53
2023-01-29T07:09:52.995Z,95733.06
2023-01-29T07:12:23.339Z,95738.56
2023-01-29T07:14:50.986Z,95734.72
2023-01-29T07:17:20.603Z,95734.41
2023-01-29T07:19:48.231Z,95740.06
2023-01-29T07:22:16.364Z,95728.66
2023-01-29T07:24:44.005Z,95718.41
2023-01-29T07:27:11.652Z,95708.19
2023-01-29T07:29:39.288Z,95710.72
2023-01-29T07:32:07.896Z,95712.41
2023-01-29T07:34:37.177Z,95711.78
2023-01-29T07:37:06.185Z,95703.59
2023-01-29T07:39:33.882Z,95712.28
2023-01-29T07:42:02.443Z,95714.13
2023-01-29T07:44:30.071Z,95703.25
2023-01-29T07:46:57.810Z,95698.78
2023-01-29T07:49:25.508Z,95701.81
2023-01-29T07:51:54.471Z,95712.88
2023-01-29T07:54:22.143Z,95708.50
2023-01-29T07:56:49.908Z,95706.13
2023-01-29T07:59:17.745Z,95706.84
2023-01-29T08:01:45.350Z,95706.19
2023-01-29T08:04:12.956Z,95704.53
2023-01-29T08:06:40.599Z,95700.53
2023-01-29T08:09:09.570Z,95694.97
2023-01-29T08:11:37.235Z,95697.50
2023-01-29T08:14:04.879Z,95689.13
2023-01-29T08:16:32.517Z,95687.09
2023-01-29T08:19:00.198Z,95697.84
2023-01-29T08:21:27.863Z,95695.06
2023-01-29T08:23:55.530Z,95696.91
2023-01-29T08:26:26.247Z,95697.38
2023-01-29T08:28:54.161Z,95698.22
2023-01-29T08:31:21.901Z,95693.22
2023-01-29T08:33:49.689Z,95702.25
2023-01-29T08:36:17.552Z,95704.47
2023-01-29T08:38:45.197Z,95701.78
2023-01-29T08:41:12.882Z,95709.63
2023-01-29T08:43:41.822Z,95712.75
2023-01-29T08:46:09.819Z,95710.50
2023-01-29T08:48:37.458Z,95714.34
2023-01-29T08:51:05.851Z,95718.47
2023-01-29T08:53:33.862Z,95727.88
2023-01-29T08:56:01.584Z,95729.88
2023-01-29T08:58:29.319Z,95736.97
2023-01-29T09:00:58.336Z,95736.66
2023-01-29T09:03:26.001Z,95744.91
2023-01-29T09:05:53.635Z,95743.25
2023-01-29T09:08:21.250Z,95746.81
2023-01-29T09:10:48.925Z,95749.84
2023-01-29T09:13:16.600Z,95751.38
2023-01-29T09:15:44.314Z,95749.88
2023-01-29T09:18:13.300Z,95757.88
2023-01-29T09:20:40.920Z,95757.91
2023-01-29T09:23:11.745Z,95762.13
2023-01-29T09:25:39.619Z,95771.44
2023-01-29T09:28:07.683Z,95778.72
2023-01-29T09:30:37.791Z,95766.75
2023-01-29T09:33:06.214Z,95771.16
2023-01-29T09:35:35.560Z,95778.19
2023-01-29T09:38:03.746Z,95781.06
2023-01-29T09:40:36.461Z,95786.63
2023-01-29T09:43:05.885Z,95783.50
2023-01-29T09:45:33.906Z,95787.53
2023-01-29T09:48:03.813Z,95785.06
2023-01-29T09:50:36.296Z,95787.41
2023-01-29T09:53:09.757Z,95788.31
2023-01-29T09:55:40.972Z,95797.50
2023-01-29T09:58:13.702Z,95793.81
2023-01-29T10:00:48.370Z,95795.69
2023-01-29T10:03:25.243Z,95787.50
2023-01-29T10:06:11.238Z,95785.16
2023-01-29T10:09:38.709Z,95784.34
2023-01-29T10:12:15.827Z,95783.22
2023-01-29T10:14:53.278Z,95777.50
2023-01-29T10:17:37.997Z,95779.59
2023-01-29T10:20:21.082Z,95777.25
2023-01-29T10:23:06.613Z,95772.56
2023-01-29T10:25:36.633Z,95773.28
2023-01-29T10:28:04.300Z,95780.50
2023-01-29T10:30:34.436Z,95779.16
2023-01-29T10:33:04.385Z,95778.84
2023-01-29T10:35:34.890Z,95774.66
2023-01-29T10:38:34.011Z,95778.06
2023-01-29T10:41:12.318Z,95775.44
2023-01-29T10:43:47.348Z,95779.75
2023-01-29T10:46:25.543Z,95777.25
2023-01-29T10:48:59.287Z,95772.03
2023-01-29T10:51:47.719Z,95778.09
2023-01-29T10:54:30.140Z,95764.22
2023-01-29T10:57:04.803Z,95769.41
2023-01-29T10:59:47.024Z,95768.22
2023-01-29T11:02:15.563Z,95766.53
2023-01-29T11:04:43.170Z,95769.06
2023-01-29T11:07:20.761Z,95768.53
2023-01-29T11:09:53.471Z,95768.03
2023-01-29T11:12:26.616Z,95756.31
2023-01-29T11:14:56.806Z,95755.28
2023-01-29T11:17:26.210Z,95761.41
2023-01-29T11:19:55.638Z,95752.09
2023-01-29T11:22:24.901Z,95744.28
2023-01-29T11:25:17.267Z,95742.13
2023-01-29T11:27:46.193Z,95740.63
2023-01-29T11:30:21.754Z,95746.31
2023-01-29T11:32:53.427Z,95739.31
2023-01-29T11:35:23.090Z,95740.97
2023-01-29T11:37:50.835Z,95729.91
2023-01-29T11:40:39.145Z,95729.53
2023-01-29T11:43:24.362Z,95731.88
2023-01-29T11:45:53.803Z,95727.91
2023-01-29T11:48:23.196Z,95718.19
2023-01-29T11:50:55.047Z,95722.16
2023-01-29T11:53:26.223Z,95723.31
2023-01-29T11:55:55.945Z,95715.78
2023-01-29T11:58:28.643Z,95704.25
2023-01-29T12:00:56.750Z,95692.56
2023-01-29T12:03:32.117Z,95679.34
2023-01-29T12:06:01.741Z,95667.81
2023-01-29T12:08:34.988Z,95659.78
2023-01-29T12:11:11.316Z,95648.25
2023-01-29T12:13:40.623Z,95635.53
2023-01-29T12:16:20.716Z,95647.91
2023-01-29T12:18:52.735Z,95650.91
2023-01-29T12:21:21.457Z,95646.94
2023-01-29T12:23:55.161Z,95647.09
2023-01-29T12:26:28.426Z,95655.28
2023-01-29T12:29:08.369Z,95655.31
2023-01-29T12:31:38.203Z,95656.66
2023-01-29T12:34:11.904Z,95655.50
2023-01-29T12:36:43.057Z,95665.88
2023-01-29T12:39:12.049Z,95664.38
2023-01-29T12:41:46.115Z,95660.84
2023-01-29T12:44:17.339Z,95657.94
2023-01-29T12:46:50.403Z,95653.88
2023-01-29T12:49:20.010Z,95651.53
2023-01-29T12:51:54.454Z,95658.50
2023-01-29T12:54:23.987Z,95651.50
2023-01-29T12:56:54.715Z,95645.16
2023-01-29T12:59:33.066Z,95644.50
2023-01-29T13:02:03.705Z,95637.78
2023-01-29T13:04:38.051Z,95628.81
2023-01-29T13:07:13.047Z,95624.78
2023-01-29T13:09:44.245Z,95613.78
2023-01-29T13:12:15.897Z,95614.13
2023-01-29T13:14:47.193Z,95600.09
2023-01-29T13:17:19.547Z,95599.41
2023-01-29T13:19:51.079Z,95587.03
2023-01-29T13:22:22.952Z,95583.69
2023-01-29T13:25:03.629Z,95587.38
2023-01-29T13:27:37.170Z,95586.53
2023-01-29T13:30:05.606Z,95589.22
2023-01-29T13:32:36.204Z,95582.00
2023-01-29T13:35:05.498Z,95579.81
2023-01-29T13:37:34.552Z,95582.66
2023-01-29T13:40:04.236Z,95575.47
2023-01-29T13:42:40.837Z,95580.34
2023-01-29T13:45:10.031Z,95574.63
2023-01-29T13:47:40.086Z,95575.66
2023-01-29T13:50:09.717Z,95574.47
2023-01-29T13:52:42.923Z,95570.13
2023-01-29T13:55:23.917Z,95569.59
2023-01-29T13:57:57.137Z,95559.25
2023-01-29T14:01:11.889Z,95559.22
2023-01-29T14:04:04.067Z,95562.59
2023-01-29T14:06:40.376Z,95561.41
2023-01-29T14:09:49.662Z,95564.94
2023-01-29T14:12:41.592Z,95552.56
2023-01-29T14:15:21.441Z,95540.84
2023-01-29T14:18:13.476Z,95537.50
2023-01-29T14:20:45.930Z,95537.34
2023-01-29T14:23:24.110Z,95529.81
2023-01-29T14:25:51.881Z,95521.25
2023-01-29T14:28:23.815Z,95522.94
2023-01-29T14:30:53.813Z,95533.81
2023-01-29T14:33:35.722Z,95532.13
2023-01-29T14:36:06.358Z,95538.50
2023-01-29T14:38:34.428Z,95535.34
2023-01-29T14:41:09.012Z,95527.63
2023-01-29T14:43:36.818Z,95533.81
2023-01-29T14:46:38.025Z,95540.50
2023-01-29T14:49:08.771Z,95553.56
2023-01-29T14:51:38.582Z,95559.72
2023-01-29T14:54:13.060Z,95555.72
2023-01-29T14:56:43.723Z,95548.03
2023-01-29T14:59:18.713Z,95561.94
2023-01-29T15:01:49.686Z,95578.34
2023-01-29T15:04:22.418Z,95570.97
2023-01-29T15:06:53.952Z,95559.44
2023-01-29T15:09:36.537Z,95554.56
2023-01-29T15:12:09.636Z,95555.41
2023-01-29T15:14:40.717Z,95561.06
2023-01-29T15:17:18.617Z,95559.91
2023-01-29T15:19:49.551Z,95559.09
2023-01-29T15:22:18.535Z,95552.06
2023-01-29T15:24:47.436Z,95556.75
2023-01-29T15:27:17.227Z,95561.94
2023-01-29T15:29:48.055Z,95557.91
2023-01-29T15:32:20.532Z,95559.59
2023-01-29T15:34:50.258Z,95568.28
2023-01-29T15:37:29.582Z,95565.25
2023-01-29T15:39:58.003Z,95569.13
2023-01-29T15:42:27.851Z,95572.13
2023-01-29T15:44:55.777Z,95572.94
2023-01-29T15:47:25.914Z,95567.78
2023-01-29T15:49:57.311Z,95575.97
2023-01-29T15:52:28.430Z,95579.13
2023-01-29T15:54:57.715Z,95576.75
2023-01-29T15:57:28.908Z,95580.94
2023-01-29T15:59:58.944Z,95580.81
2023-01-29T16:02:36.665Z,95575.97
2023-01-29T16:05:07.201Z,95569.09
2023-01-29T16:07:36.079Z,95581.97
2023-01-29T16:10:04.267Z,95579.91
2023-01-29T16:12:33.353Z,95583.28
2023-01-29T16:15:02.309Z,95580.94
2023-01-29T16:17:35.227Z,95582.78
2023-01-29T16:20:06.267Z,95583.31
2023-01-29T16:22:35.943Z,95586.31
2023-01-29T16:25:04.886Z,95588.13
2023-01-29T16:27:33.458Z,95599.81
2023-01-29T16:30:02.133Z,95599.50
2023-01-29T16:32:30.718Z,95597.47
2023-01-29T16:34:59.861Z,95604.19
2023-01-29T16:37:30.416Z,95600.50
2023-01-29T16:39:58.887Z,95593.81
2023-01-29T16:42:28.676Z,95607.50
2023-01-29T16:45:01.322Z,95602.66
2023-01-29T16:47:32.537Z,95597.84
2023-01-29T16:50:01.726Z,95606.38
2023-01-29T16:52:33.856Z,95603.38
2023-01-29T16:55:22.796Z,95608.53
2023-01-29T16:57:53.404Z,95612.22
2023-01-29T17:00:24.141Z,95614.75
2023-01-29T17:02:53.873Z,95616.06
2023-01-29T17:05:25.010Z,95607.72
2023-01-29T17:07:57.533Z,95615.38
2023-01-29T17:10:26.082Z,95615.72
2023-01-29T17:12:58.508Z,95618.88
2023-01-29T17:15:35.966Z,95627.38
2023-01-29T17:18:04.046Z,95630.03
2023-01-29T17:20:32.702Z,95635.06
2023-01-29T17:23:01.639Z,95633.75
2023-01-29T17:25:29.984Z,95625.22
2023-01-29T17:27:57.818Z,95631.41
2023-01-29T17:30:28.565Z,95634.09
2023-01-29T17:32:56.172Z,95639.44
2023-01-29T17:35:23.808Z,95646.63
2023-01-29T17:37:51.446Z,95632.09
2023-01-29T17:40:28.890Z,95640.47
2023-01-29T17:42:56.495Z,95637.97
2023-01-29T17:45:24.338Z,95638.81
2023-01-29T17:47:51.912Z,95634.28
2023-01-29T17:50:23.488Z,95633.78
2023-01-29T17:52:51.175Z,95645.47
2023-01-29T17:55:19.014Z,95654.34
2023-01-29T17:57:48.188Z,95643.97
2023-01-29T18:00:18.792Z,95639.56
2023-01-29T18:02:46.582Z,95641.56
2023-01-29T18:05:15.759Z,95634.19
2023-01-29T18:07:45.878Z,95635.66
2023-01-29T18:10:15.597Z,95632.31
2023-01-29T18:12:43.198Z,95632.66
2023-01-29T18:15:13.161Z,95627.44
2023-01-29T18:17:41.266Z,95623.94
2023-01-29T18:20:17.888Z,95621.72
2023-01-29T18:22:45.655Z,95617.84
2023-01-29T18:25:13.330Z,95616.47
2023-01-29T18:27:40.948Z,95615.97
2023-01-29T18:30:12.804Z,95615.75
2023-01-29T18:32:40.551Z,95620.13
2023-01-29T18:35:09.278Z,95609.22
2023-01-29T18:37:36.973Z,95610.53
2023-01-29T18:40:05.808Z,95610.69
2023-01-29T18:42:35.939Z,95607.19
2023-01-29T18:45:03.721Z,95610.00
2023-01-29T18:47:32.766Z,95612.00
2023-01-29T18:50:00.416Z,95617.19
2023-01-29T18:52:28.079Z,95613.13
2023-01-29T18:54:55.724Z,95614.31
2023-01-29T18:58:27.923Z,95613.44
2023-01-29T19:00:12.260Z,95618.91
2023-01-29T19:02:42.954Z,95614.72
2023-01-29T19:05:10.977Z,95618.38
2023-01-29T19:07:38.857Z,95621.91
2023-01-29T19:10:09.372Z,95621.84
2023-01-29T19:12:38.099Z,95621.47
2023-01-29T19:15:06.793Z,95623.78
2023-01-29T19:17:34.742Z,95625.59
2023-01-29T19:20:04.730Z,95634.59
2023-01-29T19:22:32.576Z,95630.78
2023-01-29T19:25:00.313Z,95625.72
2023-01-29T19:27:30.417Z,95628.03
2023-01-29T19:29:58.215Z,95624.16
2023-01-29T19:32:25.966Z,95627.13
2023-01-29T19:34:53.615Z,95618.59
2023-01-29T19:37:22.701Z,95619.59
2023-01-29T19:39:50.340Z,95618.91
2023-01-29T19:42:19.362Z,95613.50
2023-01-29T19:44:47.068Z,95613.78
2023-01-29T19:47:15.052Z,95622.19
2023-01-29T19:49:42.828Z,95620.38
2023-01-29T19:52:14.880Z,95617.16
2023-01-29T19:54:46.237Z,95606.66
2023-01-29T19:57:13.931Z,95610.16
2023-01-29T19:59:45.623Z,95602.00
2023-01-29T20:02:13.516Z,95599.47
2023-01-29T20:04:41.555Z,95598.50
2023-01-29T20:07:11.294Z,95591.84
2023-01-29T20:09:38.954Z,95597.81
2023-01-29T20:12:08.796Z,95587.28
2023-01-29T20:14:36.483Z,95586.59
2023-01-29T20:17:05.954Z,95586.72
2023-01-29T20:19:35.893Z,95591.25
2023-01-29T20:22:03.930Z,95593.91
2023-01-29T20:24:32.154Z,95593.59
2023-01-29T20:26:59.988Z,95589.81
2023-01-29T20:29:29.061Z,95592.47
2023-01-29T20:31:57.307Z,95584.78
2023-01-29T20:34:25.171Z,95592.25
2023-01-29T20:36:52.884Z,95590.56
2023-01-29T20:39:20.498Z,95591.00
2023-01-29T20:41:48.149Z,95593.81
2023-01-29T20:44:15.910Z,95591.84
2023-01-29T20:46:45.286Z,95574.19
2023-01-29T20:49:12.947Z,95590.47
2023-01-29T20:51:40.744Z,95571.81
2023-01-29T20:54:08.656Z,95583.31
2023-01-29T20:56:46.248Z,95575.59
2023-01-29T20:59:15.494Z,95577.34
2023-01-29T21:01:45.519Z,95574.41
2023-01-29T21:04:13.308Z,95566.09
2023-01-29T21:06:41.143Z,95572.94
2023-01-29T21:09:12.026Z,95564.94
2023-01-29T21:11:39.724Z,95563.06
2023-01-29T21:14:07.980Z,95557.03
2023-01-29T21:16:35.769Z,95560.97
2023-01-29T21:19:04.902Z,95560.00
2023-01-29T21:21:32.495Z,95554.81
2023-01-29T21:24:00.105Z,95559.31
2023-01-29T21:26:27.810Z,95557.94
2023-01-29T21:28:55.491Z,95556.56
2023-01-29T21:31:23.252Z,95557.03
2023-01-29T21:33:50.917Z,95559.53
2023-01-29T21:36:19.946Z,95561.34
2023-01-29T21:38:47.632Z,95558.84
2023-01-29T21:41:15.358Z,95566.28
2023-01-29T21:43:42.064Z,95562.94
2023-01-29T21:46:12.468Z,95562.41
2023-01-29T21:48:41.085Z,95556.25
2023-01-29T21:51:09.234Z,95549.69
2023-01-29T21:53:38.205Z,95556.84
2023-01-29T21:56:07.041Z,95562.03
2023-01-29T21:58:34.715Z,95558.75
2023-01-29T22:01:23.030Z,95555.94
2023-01-29T22:03:50.148Z,95553.44
2023-01-29T22:06:17.952Z,95543.59
2023-01-29T22:08:47.140Z,95544.56
2023-01-29T22:11:14.861Z,95548.56
2023-01-29T22:13:42.603Z,95543.38
2023-01-29T22:16:10.257Z,95542.97
2023-01-29T22:18:37.850Z,95546.31
2023-01-29T22:21:08.500Z,95549.00
2023-01-29T22:23:36.194Z,95534.69
2023-01-29T22:26:05.827Z,95542.53
2023-01-29T22:28:33.466Z,95543.38
2023-01-29T22:31:04.982Z,95538.03
2023-01-29T22:33:33.234Z,95545.72
2023-01-29T22:36:01.098Z,95538.88
2023-01-29T22:38:28.927Z,95531.00
2023-01-29T22:40:57.893Z,95525.69
2023-01-29T22:43:27.002Z,95520.59
2023-01-29T22:45:55.047Z,95519.06
2023-01-29T22:48:23.677Z,95510.53
2023-01-29T22:51:09.314Z,95514.31
2023-01-29T22:53:37.747Z,95508.00
2023-01-29T22:56:06.047Z,95507.47
2023-01-29T22:58:35.203Z,95494.75
2023-01-29T23:01:03.093Z,95495.03
2023-01-29T23:03:30.906Z,95488.06
2023-01-29T23:05:58.632Z,95482.16
2023-01-29T23:08:26.220Z,95480.25
2023-01-29T23:10:53.880Z,95474.25
2023-01-29T23:13:21.489Z,95469.22
2023-01-29T23:16:00.159Z,95469.06
2023-01-29T23:18:27.931Z,95464.88
2023-01-29T23:20:58.340Z,95460.22
2023-01-29T23:23:26.103Z,95457.88
2023-01-29T23:26:15.478Z,95454.22
2023-01-29T23:28:43.493Z,95443.88
2023-01-29T23:31:12.730Z,95443.88
2023-01-29T23:33:40.498Z,95439.16
2023-01-29T23:36:08.970Z,95445.84
2023-01-29T23:38:36.613Z,95436.88
2023-01-29T23:41:04.216Z,95448.91
2023-01-29T23:43:31.902Z,95437.28
2023-01-29T23:45:59.637Z,95443.41
2023-01-29T23:48:28.773Z,95444.41
2023-01-29T23:50:56.412Z,95430.09
2023-01-29T23:53:24.107Z,95432.91
2023-01-29T23:55:58.414Z,95432.91
2023-01-29T23:58:26.239Z,95424.09
